sensor_id;sensor_type;location;lat;lon;timestamp;pressure;altitude;pressure_sealevel;temperature;humidity
39301;BME280;25019;42.626;23.380;2023-01-31T00:00:50;93906.50;;;-2.59;100.00
39301;BME280;25019;42.626;23.380;2023-01-31T00:03:15;93965.84;;;-2.17;100.00
39301;BME280;25019;42.626;23.380;2023-01-31T00:05:41;93973.13;;;-2.13;100.00
39301;BME280;25019;42.626;23.380;2023-01-31T00:08:06;93931.41;;;-2.34;100.00
39301;BME280;25019;42.626;23.380;2023-01-31T00:10:33;93992.34;;;-1.99;100.00
39301;BME280;25019;42.626;23.380;2023-01-31T00:12:58;93982.72;;;-1.98;100.00
39301;BME280;25019;42.626;23.380;2023-01-31T00:15:24;93989.63;;;-1.90;100.00
39301;BME280;25019;42.626;23.380;2023-01-31T00:17:50;93968.09;;;-2.14;100.00
39301;BME280;25019;42.626;23.380;2023-01-31T00:20:15;93984.25;;;-2.04;100.00
39301;BME280;25019;42.626;23.380;2023-01-31T00:22:41;93883.34;;;-2.68;100.00
39301;BME280;25019;42.626;23.380;2023-01-31T00:25:07;93942.97;;;-2.22;100.00
39301;BME280;25019;42.626;23.380;2023-01-31T00:27:33;93960.75;;;-2.11;100.00
39301;BME280;25019;42.626;23.380;2023-01-31T00:29:58;93961.88;;;-1.98;100.00
39301;BME280;25019;42.626;23.380;2023-01-31T00:32:24;93971.59;;;-1.92;100.00
39301;BME280;25019;42.626;23.380;2023-01-31T00:34:52;93960.81;;;-1.89;100.00
39301;BME280;25019;42.626;23.380;2023-01-31T00:37:19;93964.31;;;-1.82;100.00
39301;BME280;25019;42.626;23.380;2023-01-31T00:39:45;93891.84;;;-2.30;100.00
39301;BME280;25019;42.626;23.380;2023-01-31T00:42:10;93982.88;;;-1.70;100.00
39301;BME280;25019;42.626;23.380;2023-01-31T00:44:38;93933.88;;;-1.96;100.00
39301;BME280;25019;42.626;23.380;2023-01-31T00:47:04;93990.75;;;-1.63;100.00
39301;BME280;25019;42.626;23.380;2023-01-31T00:49:30;93987.88;;;-1.68;100.00
39301;BME280;25019;42.626;23.380;2023-01-31T00:51:55;93938.66;;;-2.00;100.00
39301;BME280;25019;42.626;23.380;2023-01-31T00:54:21;93833.59;;;-2.65;100.00
39301;BME280;25019;42.626;23.380;2023-01-31T00:56:47;93976.13;;;-1.64;100.00
39301;BME280;25019;42.626;23.380;2023-01-31T00:59:13;93969.38;;;-1.58;100.00
39301;BME280;25019;42.626;23.380;2023-01-31T01:01:39;93967.66;;;-1.51;100.00
39301;BME280;25019;42.626;23.380;2023-01-31T01:04:05;93910.22;;;-1.79;100.00
39301;BME280;25019;42.626;23.380;2023-01-31T01:06:32;93881.09;;;-1.90;100.00
39301;BME280;25019;42.626;23.380;2023-01-31T01:08:58;93935.41;;;-1.50;100.00
39301;BME280;25019;42.626;23.380;2023-01-31T01:11:31;93959.94;;;-1.38;100.00
39301;BME280;25019;42.626;23.380;2023-01-31T01:13:58;93974.09;;;-1.47;100.00
39301;BME280;25019;42.626;23.380;2023-01-31T01:16:30;93984.00;;;-1.57;100.00
39301;BME280;25019;42.626;23.380;2023-01-31T01:18:56;93891.09;;;-2.08;100.00
39301;BME280;25019;42.626;23.380;2023-01-31T01:21:27;93976.38;;;-1.59;100.00
39301;BME280;25019;42.626;23.380;2023-01-31T01:23:55;93978.88;;;-1.66;100.00
39301;BME280;25019;42.626;23.380;2023-01-31T01:26:24;93940.09;;;-2.12;100.00
39301;BME280;25019;42.626;23.380;2023-01-31T01:28:51;93968.44;;;-1.87;100.00
39301;BME280;25019;42.626;23.380;2023-01-31T01:31:18;93978.31;;;-1.83;100.00
39301;BME280;25019;42.626;23.380;2023-01-31T01:33:46;93962.31;;;-1.79;100.00
39301;BME280;25019;42.626;23.380;2023-01-31T01:36:14;93963.47;;;-1.67;100.00
39301;BME280;25019;42.626;23.380;2023-01-31T01:38:42;93950.06;;;-1.64;100.00
39301;BME280;25019;42.626;23.380;2023-01-31T01:41:09;93942.69;;;-1.60;100.00
39301;BME280;25019;42.626;23.380;2023-01-31T01:43:50;93933.09;;;-1.60;96.81
39301;BME280;25019;42.626;23.380;2023-01-31T01:51:38;93929.81;;;-1.25;82.00
39301;BME280;25019;42.626;23.380;2023-01-31T01:54:08;93933.09;;;-1.16;78.71
39301;BME280;25019;42.626;23.380;2023-01-31T01:56:40;93927.81;;;-1.01;73.94
39301;BME280;25019;42.626;23.380;2023-01-31T01:59:11;93826.19;;;-1.52;71.38
39301;BME280;25019;42.626;23.380;2023-01-31T02:01:39;93920.44;;;-0.69;67.38
39301;BME280;25019;42.626;23.380;2023-01-31T02:04:12;93921.34;;;-0.55;66.13
39301;BME280;25019;42.626;23.380;2023-01-31T02:06:41;93927.22;;;-0.47;65.65
39301;BME280;25019;42.626;23.380;2023-01-31T02:11:52;93874.13;;;-0.67;64.10
39301;BME280;25019;42.626;23.380;2023-01-31T02:14:20;93920.47;;;-0.34;62.69
39301;BME280;25019;42.626;23.380;2023-01-31T02:16:46;93926.50;;;-0.27;59.87
39301;BME280;25019;42.626;23.380;2023-01-31T02:22:13;93844.16;;;-0.78;59.90
39301;BME280;25019;42.626;23.380;2023-01-31T02:40:58;93923.00;;;-0.41;60.59
39301;BME280;25019;42.626;23.380;2023-01-31T02:46:13;93925.25;;;-0.38;59.58
39301;BME280;25019;42.626;23.380;2023-01-31T02:48:52;93912.56;;;-0.41;60.66
39301;BME280;25019;42.626;23.380;2023-01-31T02:51:21;93907.72;;;-0.51;60.65
39301;BME280;25019;42.626;23.380;2023-01-31T02:54:12;93932.03;;;-0.43;62.40
39301;BME280;25019;42.626;23.380;2023-01-31T02:56:43;93935.06;;;-0.40;63.06
39301;BME280;25019;42.626;23.380;2023-01-31T02:59:22;93938.50;;;-0.39;63.49
39301;BME280;25019;42.626;23.380;2023-01-31T03:01:57;93857.03;;;-1.05;64.59
39301;BME280;25019;42.626;23.380;2023-01-31T03:04:29;93951.91;;;-0.42;64.33
39301;BME280;25019;42.626;23.380;2023-01-31T03:07:05;93925.94;;;-0.57;65.36
39301;BME280;25019;42.626;23.380;2023-01-31T03:09:36;93890.06;;;-0.84;65.55
39301;BME280;25019;42.626;23.380;2023-01-31T03:14:58;93970.75;;;-0.47;68.04
39301;BME280;25019;42.626;23.380;2023-01-31T03:22:48;93957.63;;;-0.61;72.43
39301;BME280;25019;42.626;23.380;2023-01-31T03:25:18;93987.16;;;-0.53;74.22
39301;BME280;25019;42.626;23.380;2023-01-31T03:27:52;93990.16;;;-0.56;74.54
39301;BME280;25019;42.626;23.380;2023-01-31T03:30:27;93989.16;;;-0.55;75.22
39301;BME280;25019;42.626;23.380;2023-01-31T03:32:58;93918.13;;;-1.08;77.31
39301;BME280;25019;42.626;23.380;2023-01-31T03:35:28;94001.59;;;-0.57;79.03
39301;BME280;25019;42.626;23.380;2023-01-31T03:38:11;94006.19;;;-0.59;80.18
39301;BME280;25019;42.626;23.380;2023-01-31T03:40:48;94010.34;;;-0.65;83.58
39301;BME280;25019;42.626;23.380;2023-01-31T03:43:24;93950.72;;;-1.18;85.43
39301;BME280;25019;42.626;23.380;2023-01-31T03:45:59;93970.16;;;-0.99;86.69
39301;BME280;25019;42.626;23.380;2023-01-31T03:48:30;94011.06;;;-0.78;87.91
39301;BME280;25019;42.626;23.380;2023-01-31T03:50:59;94038.78;;;-0.70;87.91
39301;BME280;25019;42.626;23.380;2023-01-31T03:53:32;94038.00;;;-0.71;88.98
39301;BME280;25019;42.626;23.380;2023-01-31T03:56:15;94038.19;;;-0.72;89.62
39301;BME280;25019;42.626;23.380;2023-01-31T03:58:46;94042.50;;;-0.80;90.79
39301;BME280;25019;42.626;23.380;2023-01-31T04:01:17;94038.06;;;-0.86;93.68
39301;BME280;25019;42.626;23.380;2023-01-31T04:03:49;94042.28;;;-0.85;94.40
39301;BME280;25019;42.626;23.380;2023-01-31T04:06:16;94040.22;;;-0.89;95.60
39301;BME280;25019;42.626;23.380;2023-01-31T04:08:42;93979.63;;;-1.35;96.00
39301;BME280;25019;42.626;23.380;2023-01-31T04:11:12;93910.16;;;-1.86;97.00
39301;BME280;25019;42.626;23.380;2023-01-31T04:13:39;94040.38;;;-0.98;98.40
39301;BME280;25019;42.626;23.380;2023-01-31T04:16:05;94036.13;;;-0.99;98.66
39301;BME280;25019;42.626;23.380;2023-01-31T04:18:31;93960.19;;;-1.54;98.52
39301;BME280;25019;42.626;23.380;2023-01-31T04:20:56;94057.59;;;-0.97;99.33
39301;BME280;25019;42.626;23.380;2023-01-31T04:23:22;94065.25;;;-0.95;99.50
39301;BME280;25019;42.626;23.380;2023-01-31T04:25:49;94057.41;;;-0.95;100.00
39301;BME280;25019;42.626;23.380;2023-01-31T04:28:16;94061.38;;;-0.99;100.00
39301;BME280;25019;42.626;23.380;2023-01-31T04:30:42;94051.78;;;-0.99;100.00
39301;BME280;25019;42.626;23.380;2023-01-31T04:33:08;94059.50;;;-1.06;100.00
39301;BME280;25019;42.626;23.380;2023-01-31T04:35:33;94065.28;;;-1.10;100.00
39301;BME280;25019;42.626;23.380;2023-01-31T04:37:59;94053.59;;;-1.14;100.00
39301;BME280;25019;42.626;23.380;2023-01-31T04:40:24;94058.19;;;-1.16;100.00
39301;BME280;25019;42.626;23.380;2023-01-31T04:42:50;94060.53;;;-1.22;100.00
39301;BME280;25019;42.626;23.380;2023-01-31T04:45:16;94064.34;;;-1.24;100.00
39301;BME280;25019;42.626;23.380;2023-01-31T04:47:41;94068.66;;;-1.31;100.00
39301;BME280;25019;42.626;23.380;2023-01-31T04:50:07;94076.47;;;-1.31;100.00
39301;BME280;25019;42.626;23.380;2023-01-31T04:52:33;94076.81;;;-1.34;100.00
39301;BME280;25019;42.626;23.380;2023-01-31T04:54:59;94079.69;;;-1.29;100.00
39301;BME280;25019;42.626;23.380;2023-01-31T04:57:24;94090.47;;;-1.32;100.00
39301;BME280;25019;42.626;23.380;2023-01-31T04:59:50;94013.66;;;-1.73;100.00
39301;BME280;25019;42.626;23.380;2023-01-31T05:02:16;94089.22;;;-1.37;100.00
39301;BME280;25019;42.626;23.380;2023-01-31T05:04:42;94006.50;;;-1.86;100.00
39301;BME280;25019;42.626;23.380;2023-01-31T05:07:07;94090.69;;;-1.34;100.00
39301;BME280;25019;42.626;23.380;2023-01-31T05:09:33;94101.38;;;-1.29;100.00
39301;BME280;25019;42.626;23.380;2023-01-31T05:11:59;94082.13;;;-1.28;100.00
39301;BME280;25019;42.626;23.380;2023-01-31T05:14:24;94061.13;;;-1.41;100.00
39301;BME280;25019;42.626;23.380;2023-01-31T05:16:50;94078.09;;;-1.30;100.00
39301;BME280;25019;42.626;23.380;2023-01-31T05:19:16;94085.19;;;-1.24;100.00
39301;BME280;25019;42.626;23.380;2023-01-31T05:21:42;94074.75;;;-1.24;100.00
39301;BME280;25019;42.626;23.380;2023-01-31T05:24:26;94090.47;;;-1.17;100.00
39301;BME280;25019;42.626;23.380;2023-01-31T05:26:52;94078.53;;;-1.27;100.00
39301;BME280;25019;42.626;23.380;2023-01-31T05:29:30;94003.44;;;-1.75;100.00
39301;BME280;25019;42.626;23.380;2023-01-31T05:31:58;93965.47;;;-1.99;100.00
39301;BME280;25019;42.626;23.380;2023-01-31T05:34:25;94016.53;;;-1.68;100.00
39301;BME280;25019;42.626;23.380;2023-01-31T05:36:51;94088.75;;;-1.10;100.00
39301;BME280;25019;42.626;23.380;2023-01-31T05:39:17;94096.75;;;-1.12;100.00
39301;BME280;25019;42.626;23.380;2023-01-31T05:41:43;94092.16;;;-1.25;100.00
39301;BME280;25019;42.626;23.380;2023-01-31T05:44:08;94117.84;;;-1.07;100.00
39301;BME280;25019;42.626;23.380;2023-01-31T05:46:35;94122.91;;;-1.05;100.00
39301;BME280;25019;42.626;23.380;2023-01-31T05:49:00;94119.09;;;-1.02;100.00
39301;BME280;25019;42.626;23.380;2023-01-31T05:51:26;94126.56;;;-0.99;100.00
39301;BME280;25019;42.626;23.380;2023-01-31T05:53:52;94043.88;;;-1.42;100.00
39301;BME280;25019;42.626;23.380;2023-01-31T05:56:19;94125.19;;;-0.95;100.00
39301;BME280;25019;42.626;23.380;2023-01-31T05:58:45;94113.94;;;-0.96;100.00
39301;BME280;25019;42.626;23.380;2023-01-31T06:01:18;94121.19;;;-0.98;100.00
39301;BME280;25019;42.626;23.380;2023-01-31T06:03:44;94109.84;;;-1.05;100.00
39301;BME280;25019;42.626;23.380;2023-01-31T06:06:10;94111.34;;;-0.96;100.00
39301;BME280;25019;42.626;23.380;2023-01-31T06:08:36;94125.47;;;-0.90;100.00
39301;BME280;25019;42.626;23.380;2023-01-31T06:11:02;94124.91;;;-0.85;100.00
39301;BME280;25019;42.626;23.380;2023-01-31T06:13:29;94118.50;;;-0.83;100.00
39301;BME280;25019;42.626;23.380;2023-01-31T06:15:55;94042.44;;;-1.30;100.00
39301;BME280;25019;42.626;23.380;2023-01-31T06:18:21;94128.66;;;-0.73;100.00
39301;BME280;25019;42.626;23.380;2023-01-31T06:20:47;94129.47;;;-0.72;100.00
39301;BME280;25019;42.626;23.380;2023-01-31T06:23:13;94132.50;;;-0.69;100.00
39301;BME280;25019;42.626;23.380;2023-01-31T06:25:38;94135.09;;;-0.69;100.00
39301;BME280;25019;42.626;23.380;2023-01-31T06:28:04;94130.72;;;-0.68;100.00
39301;BME280;25019;42.626;23.380;2023-01-31T06:30:30;94149.22;;;-0.63;100.00
39301;BME280;25019;42.626;23.380;2023-01-31T06:32:58;94091.47;;;-0.97;100.00
39301;BME280;25019;42.626;23.380;2023-01-31T06:35:24;94147.25;;;-0.61;100.00
39301;BME280;25019;42.626;23.380;2023-01-31T06:37:50;94148.41;;;-0.64;100.00
39301;BME280;25019;42.626;23.380;2023-01-31T06:40:16;93998.84;;;-1.58;100.00
39301;BME280;25019;42.626;23.380;2023-01-31T06:42:42;94153.56;;;-0.49;100.00
39301;BME280;25019;42.626;23.380;2023-01-31T06:45:08;94132.28;;;-0.52;100.00
39301;BME280;25019;42.626;23.380;2023-01-31T06:47:34;94158.88;;;-0.42;100.00
39301;BME280;25019;42.626;23.380;2023-01-31T06:49:59;94161.72;;;-0.37;100.00
39301;BME280;25019;42.626;23.380;2023-01-31T06:52:25;94160.88;;;0.06;100.00
39301;BME280;25019;42.626;23.380;2023-01-31T06:54:50;94165.06;;;0.29;100.00
39301;BME280;25019;42.626;23.380;2023-01-31T06:57:16;94144.47;;;0.41;100.00
39301;BME280;25019;42.626;23.380;2023-01-31T06:59:42;94160.63;;;0.58;100.00
39301;BME280;25019;42.626;23.380;2023-01-31T07:02:09;94040.34;;;-0.26;99.21
39301;BME280;25019;42.626;23.380;2023-01-31T07:04:34;94172.41;;;0.76;98.73
39301;BME280;25019;42.626;23.380;2023-01-31T07:07:00;94175.56;;;0.64;96.05
39301;BME280;25019;42.626;23.380;2023-01-31T07:09:26;94172.38;;;0.40;97.99
39301;BME280;25019;42.626;23.380;2023-01-31T07:11:51;94165.03;;;0.22;98.56
39301;BME280;25019;42.626;23.380;2023-01-31T07:14:17;94164.56;;;0.12;98.75
39301;BME280;25019;42.626;23.380;2023-01-31T07:16:42;94159.25;;;0.05;98.78
39301;BME280;25019;42.626;23.380;2023-01-31T07:19:08;94159.72;;;0.09;99.19
39301;BME280;25019;42.626;23.380;2023-01-31T07:21:33;94167.97;;;0.12;98.05
39301;BME280;25019;42.626;23.380;2023-01-31T07:24:01;94174.75;;;0.07;98.95
39301;BME280;25019;42.626;23.380;2023-01-31T07:26:26;94179.13;;;-0.01;98.33
39301;BME280;25019;42.626;23.380;2023-01-31T07:28:52;94173.69;;;0.01;99.26
39301;BME280;25019;42.626;23.380;2023-01-31T07:31:18;94174.50;;;0.02;98.65
39301;BME280;25019;42.626;23.380;2023-01-31T07:33:43;94171.91;;;0.02;99.62
39301;BME280;25019;42.626;23.380;2023-01-31T07:36:12;94171.91;;;0.02;100.00
39301;BME280;25019;42.626;23.380;2023-01-31T07:38:38;94128.22;;;-0.55;100.00
39301;BME280;25019;42.626;23.380;2023-01-31T07:41:04;94170.50;;;-0.01;100.00
39301;BME280;25019;42.626;23.380;2023-01-31T07:43:30;94167.06;;;-0.02;100.00
39301;BME280;25019;42.626;23.380;2023-01-31T07:45:56;94182.41;;;0.08;100.00
39301;BME280;25019;42.626;23.380;2023-01-31T07:48:22;94172.00;;;0.15;100.00
39301;BME280;25019;42.626;23.380;2023-01-31T07:50:53;94173.72;;;0.29;100.00
39301;BME280;25019;42.626;23.380;2023-01-31T07:53:22;94165.88;;;0.29;100.00
39301;BME280;25019;42.626;23.380;2023-01-31T07:55:47;94167.63;;;0.22;100.00
39301;BME280;25019;42.626;23.380;2023-01-31T07:58:15;94162.00;;;0.19;100.00
39301;BME280;25019;42.626;23.380;2023-01-31T08:00:41;94179.56;;;0.32;100.00
39301;BME280;25019;42.626;23.380;2023-01-31T08:03:28;94181.75;;;0.28;100.00
39301;BME280;25019;42.626;23.380;2023-01-31T08:05:57;94172.16;;;0.35;100.00
39301;BME280;25019;42.626;23.380;2023-01-31T08:08:23;94178.00;;;0.37;100.00
39301;BME280;25019;42.626;23.380;2023-01-31T08:10:49;94164.13;;;0.37;100.00
39301;BME280;25019;42.626;23.380;2023-01-31T08:13:14;94167.41;;;0.46;100.00
39301;BME280;25019;42.626;23.380;2023-01-31T08:15:40;94168.81;;;0.48;100.00
39301;BME280;25019;42.626;23.380;2023-01-31T08:18:05;94169.44;;;0.50;100.00
39301;BME280;25019;42.626;23.380;2023-01-31T08:20:31;94163.66;;;0.55;100.00
39301;BME280;25019;42.626;23.380;2023-01-31T08:22:57;94101.66;;;0.07;100.00
39301;BME280;25019;42.626;23.380;2023-01-31T08:25:25;94143.25;;;0.37;100.00
39301;BME280;25019;42.626;23.380;2023-01-31T08:27:53;94159.88;;;0.64;100.00
39301;BME280;25019;42.626;23.380;2023-01-31T08:30:19;94163.94;;;0.67;100.00
39301;BME280;25019;42.626;23.380;2023-01-31T08:32:46;94098.09;;;0.50;99.13
39301;BME280;25019;42.626;23.380;2023-01-31T08:35:11;94149.94;;;0.88;97.54
39301;BME280;25019;42.626;23.380;2023-01-31T08:37:37;94129.38;;;0.78;97.20
39301;BME280;25019;42.626;23.380;2023-01-31T08:40:03;94144.72;;;0.88;96.54
39301;BME280;25019;42.626;23.380;2023-01-31T08:42:29;94160.84;;;0.92;97.26
39301;BME280;25019;42.626;23.380;2023-01-31T08:44:54;94154.03;;;1.04;96.98
39301;BME280;25019;42.626;23.380;2023-01-31T08:47:20;94156.38;;;0.85;96.39
39301;BME280;25019;42.626;23.380;2023-01-31T08:49:45;94163.38;;;0.78;96.46
39301;BME280;25019;42.626;23.380;2023-01-31T08:52:11;94164.97;;;0.79;97.21
39301;BME280;25019;42.626;23.380;2023-01-31T08:54:36;94133.94;;;0.63;96.70
39301;BME280;25019;42.626;23.380;2023-01-31T08:57:02;94153.66;;;0.65;97.64
39301;BME280;25019;42.626;23.380;2023-01-31T08:59:28;94161.53;;;0.72;97.98
39301;BME280;25019;42.626;23.380;2023-01-31T09:01:53;94156.22;;;0.58;99.04
39301;BME280;25019;42.626;23.380;2023-01-31T09:04:19;94165.13;;;0.71;98.77
39301;BME280;25019;42.626;23.380;2023-01-31T09:06:45;94160.19;;;0.83;97.93
39301;BME280;25019;42.626;23.380;2023-01-31T09:09:10;94160.69;;;1.07;95.95
39301;BME280;25019;42.626;23.380;2023-01-31T09:11:36;94152.81;;;1.00;95.23
39301;BME280;25019;42.626;23.380;2023-01-31T09:14:04;94155.00;;;0.96;94.07
39301;BME280;25019;42.626;23.380;2023-01-31T09:16:29;94155.09;;;1.16;93.26
39301;BME280;25019;42.626;23.380;2023-01-31T09:18:55;94160.19;;;1.38;91.81
39301;BME280;25019;42.626;23.380;2023-01-31T09:21:22;94161.19;;;1.24;91.68
39301;BME280;25019;42.626;23.380;2023-01-31T09:23:53;94151.34;;;1.32;90.97
39301;BME280;25019;42.626;23.380;2023-01-31T09:26:19;94141.06;;;1.31;90.68
39301;BME280;25019;42.626;23.380;2023-01-31T09:28:45;94138.00;;;1.21;90.41
39301;BME280;25019;42.626;23.380;2023-01-31T09:31:13;94146.25;;;1.17;89.82
39301;BME280;25019;42.626;23.380;2023-01-31T09:33:40;94149.47;;;1.19;89.99
39301;BME280;25019;42.626;23.380;2023-01-31T09:36:07;94149.34;;;1.41;89.21
39301;BME280;25019;42.626;23.380;2023-01-31T09:38:33;94132.66;;;1.49;88.37
39301;BME280;25019;42.626;23.380;2023-01-31T09:41:03;94121.56;;;1.40;88.42
39301;BME280;25019;42.626;23.380;2023-01-31T09:43:39;94133.41;;;1.36;89.28
39301;BME280;25019;42.626;23.380;2023-01-31T09:46:14;94116.13;;;1.42;88.45
39301;BME280;25019;42.626;23.380;2023-01-31T09:48:44;94032.31;;;0.95;88.42
39301;BME280;25019;42.626;23.380;2023-01-31T09:51:13;94129.69;;;1.72;87.93
39301;BME280;25019;42.626;23.380;2023-01-31T09:53:41;94121.00;;;1.65;86.88
39301;BME280;25019;42.626;23.380;2023-01-31T09:56:22;94125.00;;;1.61;87.95
39301;BME280;25019;42.626;23.380;2023-01-31T10:01:55;94103.00;;;1.28;87.54
39301;BME280;25019;42.626;23.380;2023-01-31T10:09:47;94116.94;;;1.42;88.14
39301;BME280;25019;42.626;23.380;2023-01-31T10:12:23;94123.03;;;1.83;86.55
39301;BME280;25019;42.626;23.380;2023-01-31T10:14:55;94129.50;;;1.87;86.16
39301;BME280;25019;42.626;23.380;2023-01-31T10:17:26;94124.84;;;1.76;85.49
39301;BME280;25019;42.626;23.380;2023-01-31T10:22:34;94065.13;;;1.04;87.43
39301;BME280;25019;42.626;23.380;2023-01-31T10:27:45;94126.59;;;1.42;88.72
39301;BME280;25019;42.626;23.380;2023-01-31T10:30:19;94100.22;;;1.37;86.97
39301;BME280;25019;42.626;23.380;2023-01-31T10:32:50;94061.75;;;1.44;84.83
39301;BME280;25019;42.626;23.380;2023-01-31T10:35:25;94102.28;;;1.68;83.76
39301;BME280;25019;42.626;23.380;2023-01-31T10:37:59;94106.69;;;1.61;85.01
39301;BME280;25019;42.626;23.380;2023-01-31T10:40:38;94105.50;;;1.63;84.91
39301;BME280;25019;42.626;23.380;2023-01-31T10:43:17;94031.19;;;1.38;85.03
39301;BME280;25019;42.626;23.380;2023-01-31T10:45:45;94103.69;;;1.98;83.09
39301;BME280;25019;42.626;23.380;2023-01-31T10:48:22;94033.22;;;1.62;82.46
39301;BME280;25019;42.626;23.380;2023-01-31T10:56:32;94102.47;;;2.34;80.86
39301;BME280;25019;42.626;23.380;2023-01-31T10:59:01;94096.22;;;2.28;80.52
39301;BME280;25019;42.626;23.380;2023-01-31T11:01:27;94100.84;;;2.33;81.12
39301;BME280;25019;42.626;23.380;2023-01-31T11:03:54;94042.66;;;1.84;81.79
39301;BME280;25019;42.626;23.380;2023-01-31T11:06:22;94110.31;;;2.34;82.10
39301;BME280;25019;42.626;23.380;2023-01-31T11:08:54;94117.38;;;2.40;81.05
39301;BME280;25019;42.626;23.380;2023-01-31T11:11:23;94088.19;;;1.96;82.34
39301;BME280;25019;42.626;23.380;2023-01-31T11:16:23;94115.59;;;1.73;85.44
39301;BME280;25019;42.626;23.380;2023-01-31T11:18:49;94114.97;;;1.64;85.45
39301;BME280;25019;42.626;23.380;2023-01-31T11:21:24;93997.03;;;0.64;88.19
39301;BME280;25019;42.626;23.380;2023-01-31T11:23:54;94094.31;;;1.14;89.19
39301;BME280;25019;42.626;23.380;2023-01-31T11:26:32;94119.91;;;1.26;91.22
39301;BME280;25019;42.626;23.380;2023-01-31T11:28:58;94059.41;;;0.80;92.69
39301;BME280;25019;42.626;23.380;2023-01-31T11:31:33;94121.34;;;1.35;91.92
39301;BME280;25019;42.626;23.380;2023-01-31T11:34:04;94125.13;;;1.26;93.10
39301;BME280;25019;42.626;23.380;2023-01-31T11:36:32;94107.63;;;1.26;93.16
39301;BME280;25019;42.626;23.380;2023-01-31T11:41:51;94105.63;;;1.22;94.65
39301;BME280;25019;42.626;23.380;2023-01-31T11:44:19;94109.25;;;1.34;94.61
39301;BME280;25019;42.626;23.380;2023-01-31T11:46:54;94083.09;;;1.21;95.67
39301;BME280;25019;42.626;23.380;2023-01-31T11:49:41;94111.09;;;1.33;96.97
39301;BME280;25019;42.626;23.380;2023-01-31T11:52:13;94036.50;;;0.82;97.23
39301;BME280;25019;42.626;23.380;2023-01-31T11:54:44;94103.41;;;1.32;98.74
39301;BME280;25019;42.626;23.380;2023-01-31T11:57:19;94106.47;;;1.36;98.58
39301;BME280;25019;42.626;23.380;2023-01-31T11:59:48;94115.09;;;1.29;99.62
39301;BME280;25019;42.626;23.380;2023-01-31T12:02:38;94106.38;;;1.09;100.00
39301;BME280;25019;42.626;23.380;2023-01-31T12:05:12;94082.28;;;0.65;100.00
39301;BME280;25019;42.626;23.380;2023-01-31T12:07:48;94113.28;;;0.74;100.00
39301;BME280;25019;42.626;23.380;2023-01-31T12:10:43;94123.72;;;0.68;100.00
39301;BME280;25019;42.626;23.380;2023-01-31T12:13:15;94103.97;;;0.65;100.00
39301;BME280;25019;42.626;23.380;2023-01-31T12:16:01;94106.38;;;0.60;100.00
39301;BME280;25019;42.626;23.380;2023-01-31T12:21:23;94117.25;;;0.64;100.00
39301;BME280;25019;42.626;23.380;2023-01-31T12:26:33;94112.44;;;0.67;100.00
39301;BME280;25019;42.626;23.380;2023-01-31T12:29:16;94118.50;;;0.74;100.00
39301;BME280;25019;42.626;23.380;2023-01-31T12:53:40;94111.94;;;0.85;100.00
39301;BME280;25019;42.626;23.380;2023-01-31T13:01:16;94104.72;;;1.01;100.00
39301;BME280;25019;42.626;23.380;2023-01-31T13:06:20;94098.84;;;0.85;100.00
39301;BME280;25019;42.626;23.380;2023-01-31T13:08:54;94140.19;;;0.68;100.00
39301;BME280;25019;42.626;23.380;2023-01-31T13:11:26;94132.09;;;0.56;100.00
39301;BME280;25019;42.626;23.380;2023-01-31T13:14:02;94131.41;;;0.41;100.00
39301;BME280;25019;42.626;23.380;2023-01-31T13:16:35;94128.50;;;0.29;100.00
39301;BME280;25019;42.626;23.380;2023-01-31T13:19:05;94122.84;;;0.25;100.00
39301;BME280;25019;42.626;23.380;2023-01-31T13:21:36;94084.50;;;-0.03;100.00
39301;BME280;25019;42.626;23.380;2023-01-31T13:24:14;94136.16;;;0.31;100.00
39301;BME280;25019;42.626;23.380;2023-01-31T13:26:46;94131.56;;;0.33;100.00
39301;BME280;25019;42.626;23.380;2023-01-31T13:29:20;94143.88;;;0.17;100.00
39301;BME280;25019;42.626;23.380;2023-01-31T13:31:56;94144.50;;;0.19;100.00
39301;BME280;25019;42.626;23.380;2023-01-31T13:34:43;94145.72;;;0.17;100.00
39301;BME280;25019;42.626;23.380;2023-01-31T13:37:14;94156.94;;;0.17;100.00
39301;BME280;25019;42.626;23.380;2023-01-31T13:40:08;94146.28;;;0.12;100.00
39301;BME280;25019;42.626;23.380;2023-01-31T13:42:41;94079.81;;;-0.36;100.00
39301;BME280;25019;42.626;23.380;2023-01-31T13:45:07;94139.47;;;0.18;100.00
39301;BME280;25019;42.626;23.380;2023-01-31T13:47:48;94146.28;;;0.12;100.00
39301;BME280;25019;42.626;23.380;2023-01-31T13:52:50;94151.09;;;0.15;100.00
39301;BME280;25019;42.626;23.380;2023-01-31T13:55:22;94158.19;;;0.21;100.00
39301;BME280;25019;42.626;23.380;2023-01-31T13:57:56;94155.78;;;0.20;100.00
39301;BME280;25019;42.626;23.380;2023-01-31T14:03:18;94157.69;;;0.33;100.00
39301;BME280;25019;42.626;23.380;2023-01-31T14:10:55;94161.25;;;0.25;100.00
39301;BME280;25019;42.626;23.380;2023-01-31T14:13:39;94152.22;;;0.27;100.00
39301;BME280;25019;42.626;23.380;2023-01-31T14:18:56;94163.06;;;0.31;100.00
39301;BME280;25019;42.626;23.380;2023-01-31T14:23:55;94161.94;;;0.40;100.00
39301;BME280;25019;42.626;23.380;2023-01-31T14:29:24;94162.81;;;0.48;100.00
39301;BME280;25019;42.626;23.380;2023-01-31T14:31:53;94157.56;;;0.48;100.00
39301;BME280;25019;42.626;23.380;2023-01-31T14:34:24;94168.19;;;0.46;100.00
39301;BME280;25019;42.626;23.380;2023-01-31T14:37:05;94164.34;;;0.42;100.00
39301;BME280;25019;42.626;23.380;2023-01-31T14:51:36;94186.16;;;0.27;100.00
39301;BME280;25019;42.626;23.380;2023-01-31T14:59:59;94194.59;;;0.23;100.00
39301;BME280;25019;42.626;23.380;2023-01-31T15:02:36;94204.94;;;0.16;100.00
39301;BME280;25019;42.626;23.380;2023-01-31T15:05:15;94210.19;;;0.16;100.00
39301;BME280;25019;42.626;23.380;2023-01-31T15:10:59;94226.25;;;0.13;100.00
39301;BME280;25019;42.626;23.380;2023-01-31T15:13:39;94223.44;;;0.14;100.00
39301;BME280;25019;42.626;23.380;2023-01-31T15:16:32;94230.03;;;0.10;100.00
39301;BME280;25019;42.626;23.380;2023-01-31T15:19:09;94226.69;;;-0.05;100.00